sensor_id;sensor_type;location;lat;lon;timestamp;P1;durP1;ratioP1;P2;durP2;ratioP2
13855;SDS011;6998;53.608;9.958;2023-03-14T00:01:32;7.63;;;2.92;;
13855;SDS011;6998;53.608;9.958;2023-03-14T00:04:00;7.13;;;3.28;;
13855;SDS011;6998;53.608;9.958;2023-03-14T00:06:30;7.53;;;2.90;;
13855;SDS011;6998;53.608;9.958;2023-03-14T00:08:57;7.15;;;3.47;;
13855;SDS011;6998;53.608;9.958;2023-03-14T00:11:24;5.97;;;3.55;;
13855;SDS011;6998;53.608;9.958;2023-03-14T00:13:51;7.93;;;3.03;;
13855;SDS011;6998;53.608;9.958;2023-03-14T00:16:19;4.32;;;2.97;;
13855;SDS011;6998;53.608;9.958;2023-03-14T00:18:46;6.03;;;3.47;;
13855;SDS011;6998;53.608;9.958;2023-03-14T00:21:14;7.65;;;3.17;;
13855;SDS011;6998;53.608;9.958;2023-03-14T00:23:44;6.43;;;3.53;;
13855;SDS011;6998;53.608;9.958;2023-03-14T00:26:12;8.23;;;3.28;;
13855;SDS011;6998;53.608;9.958;2023-03-14T00:28:41;7.43;;;3.50;;
13855;SDS011;6998;53.608;9.958;2023-03-14T00:31:21;7.97;;;3.10;;
13855;SDS011;6998;53.608;9.958;2023-03-14T00:33:48;8.40;;;3.28;;
13855;SDS011;6998;53.608;9.958;2023-03-14T00:36:23;10.20;;;3.50;;
13855;SDS011;6998;53.608;9.958;2023-03-14T00:38:50;7.72;;;3.17;;
13855;SDS011;6998;53.608;9.958;2023-03-14T00:41:18;9.25;;;3.33;;
13855;SDS011;6998;53.608;9.958;2023-03-14T00:43:50;7.72;;;3.20;;
13855;SDS011;6998;53.608;9.958;2023-03-14T00:46:18;10.75;;;3.53;;
13855;SDS011;6998;53.608;9.958;2023-03-14T00:48:45;8.48;;;3.35;;
13855;SDS011;6998;53.608;9.958;2023-03-14T00:51:12;8.02;;;3.35;;
13855;SDS011;6998;53.608;9.958;2023-03-14T00:53:44;9.35;;;3.03;;
13855;SDS011;6998;53.608;9.958;2023-03-14T00:59:08;6.80;;;2.90;;
13855;SDS011;6998;53.608;9.958;2023-03-14T01:01:38;9.55;;;3.10;;
13855;SDS011;6998;53.608;9.958;2023-03-14T01:04:05;11.38;;;3.80;;
13855;SDS011;6998;53.608;9.958;2023-03-14T01:06:33;7.07;;;3.17;;
13855;SDS011;6998;53.608;9.958;2023-03-14T01:09:02;9.25;;;3.10;;
13855;SDS011;6998;53.608;9.958;2023-03-14T01:11:31;7.15;;;2.75;;
13855;SDS011;6998;53.608;9.958;2023-03-14T01:14:01;8.88;;;3.17;;
13855;SDS011;6998;53.608;9.958;2023-03-14T01:16:33;12.18;;;3.17;;
13855;SDS011;6998;53.608;9.958;2023-03-14T01:19:03;9.07;;;3.05;;
13855;SDS011;6998;53.608;9.958;2023-03-14T01:21:31;12.32;;;3.38;;
13855;SDS011;6998;53.608;9.958;2023-03-14T01:24:11;6.97;;;3.00;;
13855;SDS011;6998;53.608;9.958;2023-03-14T01:26:38;10.07;;;3.42;;
13855;SDS011;6998;53.608;9.958;2023-03-14T01:29:07;10.13;;;2.85;;
13855;SDS011;6998;53.608;9.958;2023-03-14T01:31:34;9.95;;;3.40;;
13855;SDS011;6998;53.608;9.958;2023-03-14T01:34:01;7.65;;;3.33;;
13855;SDS011;6998;53.608;9.958;2023-03-14T01:36:31;9.30;;;2.83;;
13855;SDS011;6998;53.608;9.958;2023-03-14T01:39:02;7.78;;;3.25;;
13855;SDS011;6998;53.608;9.958;2023-03-14T01:41:32;6.28;;;2.72;;
13855;SDS011;6998;53.608;9.958;2023-03-14T01:43:59;9.45;;;2.85;;
13855;SDS011;6998;53.608;9.958;2023-03-14T01:46:39;7.32;;;3.03;;
13855;SDS011;6998;53.608;9.958;2023-03-14T01:49:13;9.52;;;3.30;;
13855;SDS011;6998;53.608;9.958;2023-03-14T01:51:47;7.75;;;3.05;;
13855;SDS011;6998;53.608;9.958;2023-03-14T01:54:19;8.05;;;2.70;;
13855;SDS011;6998;53.608;9.958;2023-03-14T01:56:52;11.60;;;3.00;;
13855;SDS011;6998;53.608;9.958;2023-03-14T01:59:23;10.48;;;3.40;;
13855;SDS011;6998;53.608;9.958;2023-03-14T02:01:51;7.55;;;2.97;;
13855;SDS011;6998;53.608;9.958;2023-03-14T02:04:21;8.15;;;2.97;;
13855;SDS011;6998;53.608;9.958;2023-03-14T02:06:51;9.25;;;3.75;;
13855;SDS011;6998;53.608;9.958;2023-03-14T02:09:22;7.97;;;2.95;;
13855;SDS011;6998;53.608;9.958;2023-03-14T02:11:53;9.75;;;2.92;;
13855;SDS011;6998;53.608;9.958;2023-03-14T02:14:24;6.65;;;3.28;;
13855;SDS011;6998;53.608;9.958;2023-03-14T02:16:55;7.22;;;3.20;;
13855;SDS011;6998;53.608;9.958;2023-03-14T02:19:25;10.07;;;3.60;;
13855;SDS011;6998;53.608;9.958;2023-03-14T02:22:02;7.50;;;3.25;;
13855;SDS011;6998;53.608;9.958;2023-03-14T02:24:38;8.70;;;3.67;;
13855;SDS011;6998;53.608;9.958;2023-03-14T02:27:13;9.20;;;3.70;;
13855;SDS011;6998;53.608;9.958;2023-03-14T02:29:45;8.48;;;3.40;;
13855;SDS011;6998;53.608;9.958;2023-03-14T02:32:17;13.07;;;3.40;;
13855;SDS011;6998;53.608;9.958;2023-03-14T02:34:47;8.88;;;3.88;;
13855;SDS011;6998;53.608;9.958;2023-03-14T02:37:24;9.27;;;3.40;;
13855;SDS011;6998;53.608;9.958;2023-03-14T02:40:02;11.15;;;3.97;;
13855;SDS011;6998;53.608;9.958;2023-03-14T02:42:32;11.35;;;3.70;;
13855;SDS011;6998;53.608;9.958;2023-03-14T02:45:25;10.50;;;4.05;;
13855;SDS011;6998;53.608;9.958;2023-03-14T02:48:01;10.40;;;3.88;;
13855;SDS011;6998;53.608;9.958;2023-03-14T02:50:32;6.47;;;3.45;;
13855;SDS011;6998;53.608;9.958;2023-03-14T02:53:09;6.40;;;3.65;;
13855;SDS011;6998;53.608;9.958;2023-03-14T02:55:39;8.65;;;3.58;;
13855;SDS011;6998;53.608;9.958;2023-03-14T02:58:11;8.23;;;3.63;;
13855;SDS011;6998;53.608;9.958;2023-03-14T03:00:41;7.18;;;4.15;;
13855;SDS011;6998;53.608;9.958;2023-03-14T03:03:10;5.53;;;3.47;;
13855;SDS011;6998;53.608;9.958;2023-03-14T03:05:38;8.48;;;3.78;;
13855;SDS011;6998;53.608;9.958;2023-03-14T03:08:05;6.55;;;3.97;;
13855;SDS011;6998;53.608;9.958;2023-03-14T03:10:33;5.00;;;3.58;;
13855;SDS011;6998;53.608;9.958;2023-03-14T03:13:01;7.05;;;3.60;;
13855;SDS011;6998;53.608;9.958;2023-03-14T03:15:29;9.50;;;3.95;;
13855;SDS011;6998;53.608;9.958;2023-03-14T03:17:56;8.77;;;3.70;;
13855;SDS011;6998;53.608;9.958;2023-03-14T03:20:24;7.22;;;4.00;;
13855;SDS011;6998;53.608;9.958;2023-03-14T03:22:53;8.90;;;4.10;;
13855;SDS011;6998;53.608;9.958;2023-03-14T03:25:21;8.20;;;3.92;;
13855;SDS011;6998;53.608;9.958;2023-03-14T03:27:48;6.95;;;4.05;;
13855;SDS011;6998;53.608;9.958;2023-03-14T03:30:18;8.50;;;3.60;;
13855;SDS011;6998;53.608;9.958;2023-03-14T03:32:47;8.27;;;3.70;;
13855;SDS011;6998;53.608;9.958;2023-03-14T03:35:17;6.93;;;3.95;;
13855;SDS011;6998;53.608;9.958;2023-03-14T03:37:47;9.02;;;3.72;;
13855;SDS011;6998;53.608;9.958;2023-03-14T03:40:18;6.38;;;3.30;;
13855;SDS011;6998;53.608;9.958;2023-03-14T03:42:45;8.98;;;4.18;;
13855;SDS011;6998;53.608;9.958;2023-03-14T03:45:14;5.68;;;3.10;;
13855;SDS011;6998;53.608;9.958;2023-03-14T03:47:42;8.23;;;3.17;;
13855;SDS011;6998;53.608;9.958;2023-03-14T03:50:10;6.65;;;3.33;;
13855;SDS011;6998;53.608;9.958;2023-03-14T03:52:37;6.85;;;3.03;;
13855;SDS011;6998;53.608;9.958;2023-03-14T03:55:04;7.95;;;3.33;;
13855;SDS011;6998;53.608;9.958;2023-03-14T03:57:31;6.82;;;3.25;;
13855;SDS011;6998;53.608;9.958;2023-03-14T03:59:58;7.88;;;3.03;;
13855;SDS011;6998;53.608;9.958;2023-03-14T04:02:25;5.70;;;3.00;;
13855;SDS011;6998;53.608;9.958;2023-03-14T04:04:52;6.63;;;3.03;;
13855;SDS011;6998;53.608;9.958;2023-03-14T04:07:21;7.38;;;3.20;;
13855;SDS011;6998;53.608;9.958;2023-03-14T04:09:47;6.82;;;3.28;;
13855;SDS011;6998;53.608;9.958;2023-03-14T04:12:14;7.65;;;3.20;;
13855;SDS011;6998;53.608;9.958;2023-03-14T04:14:41;8.15;;;3.60;;
13855;SDS011;6998;53.608;9.958;2023-03-14T04:17:08;6.47;;;2.88;;
13855;SDS011;6998;53.608;9.958;2023-03-14T04:19:35;7.90;;;3.10;;
13855;SDS011;6998;53.608;9.958;2023-03-14T04:22:02;7.30;;;3.47;;
13855;SDS011;6998;53.608;9.958;2023-03-14T04:24:30;10.23;;;3.60;;
13855;SDS011;6998;53.608;9.958;2023-03-14T04:26:57;7.10;;;3.20;;
13855;SDS011;6998;53.608;9.958;2023-03-14T04:29:32;10.40;;;3.38;;
13855;SDS011;6998;53.608;9.958;2023-03-14T04:31:59;8.48;;;3.72;;
13855;SDS011;6998;53.608;9.958;2023-03-14T04:34:26;8.65;;;3.08;;
13855;SDS011;6998;53.608;9.958;2023-03-14T04:36:52;8.32;;;3.72;;
13855;SDS011;6998;53.608;9.958;2023-03-14T04:39:20;8.45;;;3.35;;
13855;SDS011;6998;53.608;9.958;2023-03-14T04:41:49;7.72;;;3.42;;
13855;SDS011;6998;53.608;9.958;2023-03-14T04:44:17;7.72;;;3.72;;
13855;SDS011;6998;53.608;9.958;2023-03-14T04:46:44;6.32;;;3.55;;
13855;SDS011;6998;53.608;9.958;2023-03-14T04:49:10;6.70;;;3.38;;
13855;SDS011;6998;53.608;9.958;2023-03-14T04:51:38;8.23;;;3.88;;
13855;SDS011;6998;53.608;9.958;2023-03-14T04:54:05;7.07;;;2.80;;
13855;SDS011;6998;53.608;9.958;2023-03-14T04:56:33;3.90;;;1.80;;
13855;SDS011;6998;53.608;9.958;2023-03-14T04:59:02;2.67;;;1.33;;
13855;SDS011;6998;53.608;9.958;2023-03-14T05:01:30;4.20;;;1.40;;
13855;SDS011;6998;53.608;9.958;2023-03-14T05:03:56;3.65;;;1.40;;
13855;SDS011;6998;53.608;9.958;2023-03-14T05:06:23;4.32;;;1.45;;
13855;SDS011;6998;53.608;9.958;2023-03-14T05:08:50;3.63;;;1.70;;
13855;SDS011;6998;53.608;9.958;2023-03-14T05:11:17;4.00;;;1.77;;
13855;SDS011;6998;53.608;9.958;2023-03-14T05:13:44;3.13;;;1.63;;
13855;SDS011;6998;53.608;9.958;2023-03-14T05:16:15;3.75;;;1.80;;
13855;SDS011;6998;53.608;9.958;2023-03-14T05:18:41;6.00;;;2.10;;
13855;SDS011;6998;53.608;9.958;2023-03-14T05:21:08;4.07;;;2.08;;
13855;SDS011;6998;53.608;9.958;2023-03-14T05:23:35;5.40;;;1.85;;
13855;SDS011;6998;53.608;9.958;2023-03-14T05:26:02;3.50;;;1.60;;
13855;SDS011;6998;53.608;9.958;2023-03-14T05:28:29;3.13;;;1.90;;
13855;SDS011;6998;53.608;9.958;2023-03-14T05:30:57;7.30;;;2.40;;
13855;SDS011;6998;53.608;9.958;2023-03-14T05:33:25;6.15;;;2.42;;
13855;SDS011;6998;53.608;9.958;2023-03-14T05:35:52;5.40;;;2.22;;
13855;SDS011;6998;53.608;9.958;2023-03-14T05:38:22;4.28;;;2.28;;
13855;SDS011;6998;53.608;9.958;2023-03-14T05:40:49;6.72;;;2.80;;
13855;SDS011;6998;53.608;9.958;2023-03-14T05:43:16;4.82;;;3.15;;
13855;SDS011;6998;53.608;9.958;2023-03-14T05:45:43;8.30;;;3.03;;
13855;SDS011;6998;53.608;9.958;2023-03-14T05:48:10;4.82;;;3.17;;
13855;SDS011;6998;53.608;9.958;2023-03-14T05:50:39;5.13;;;3.42;;
13855;SDS011;6998;53.608;9.958;2023-03-14T05:53:08;5.95;;;3.20;;
13855;SDS011;6998;53.608;9.958;2023-03-14T05:55:35;6.97;;;3.67;;
13855;SDS011;6998;53.608;9.958;2023-03-14T05:58:05;7.32;;;3.90;;
13855;SDS011;6998;53.608;9.958;2023-03-14T06:00:32;9.23;;;3.90;;
13855;SDS011;6998;53.608;9.958;2023-03-14T06:03:01;6.95;;;3.90;;
13855;SDS011;6998;53.608;9.958;2023-03-14T06:05:30;9.90;;;4.00;;
13855;SDS011;6998;53.608;9.958;2023-03-14T06:11:24;8.48;;;4.55;;
13855;SDS011;6998;53.608;9.958;2023-03-14T06:14:01;8.32;;;4.72;;
13855;SDS011;6998;53.608;9.958;2023-03-14T06:19:40;8.50;;;4.55;;
13855;SDS011;6998;53.608;9.958;2023-03-14T06:22:18;11.02;;;5.38;;
13855;SDS011;6998;53.608;9.958;2023-03-14T06:24:45;8.00;;;5.55;;
13855;SDS011;6998;53.608;9.958;2023-03-14T06:27:14;11.95;;;5.50;;
13855;SDS011;6998;53.608;9.958;2023-03-14T06:29:42;12.38;;;5.68;;
13855;SDS011;6998;53.608;9.958;2023-03-14T06:32:15;10.70;;;5.82;;
13855;SDS011;6998;53.608;9.958;2023-03-14T06:34:59;8.88;;;5.85;;
13855;SDS011;6998;53.608;9.958;2023-03-14T06:38:02;9.82;;;5.57;;
13855;SDS011;6998;53.608;9.958;2023-03-14T06:41:28;9.07;;;5.25;;
13855;SDS011;6998;53.608;9.958;2023-03-14T07:04:40;9.40;;;4.90;;
13855;SDS011;6998;53.608;9.958;2023-03-14T07:07:07;9.60;;;4.45;;
13855;SDS011;6998;53.608;9.958;2023-03-14T07:09:35;7.20;;;4.03;;
13855;SDS011;6998;53.608;9.958;2023-03-14T07:15:22;11.63;;;3.78;;
13855;SDS011;6998;53.608;9.958;2023-03-14T07:18:22;6.60;;;3.47;;
13855;SDS011;6998;53.608;9.958;2023-03-14T07:21:10;6.38;;;3.63;;
13855;SDS011;6998;53.608;9.958;2023-03-14T07:23:38;6.38;;;3.25;;
13855;SDS011;6998;53.608;9.958;2023-03-14T07:29:42;8.20;;;2.63;;
13855;SDS011;6998;53.608;9.958;2023-03-14T07:43:05;8.57;;;2.50;;
13855;SDS011;6998;53.608;9.958;2023-03-14T08:15:17;5.00;;;2.00;;
13855;SDS011;6998;53.608;9.958;2023-03-14T08:34:46;4.78;;;2.35;;
13855;SDS011;6998;53.608;9.958;2023-03-14T08:41:01;6.50;;;2.08;;
13855;SDS011;6998;53.608;9.958;2023-03-14T08:53:04;6.65;;;2.60;;
13855;SDS011;6998;53.608;9.958;2023-03-14T09:22:48;9.43;;;3.58;;
13855;SDS011;6998;53.608;9.958;2023-03-14T09:25:15;10.30;;;3.78;;
13855;SDS011;6998;53.608;9.958;2023-03-14T09:27:41;7.72;;;3.65;;
13855;SDS011;6998;53.608;9.958;2023-03-14T09:30:09;8.82;;;3.78;;
13855;SDS011;6998;53.608;9.958;2023-03-14T09:32:36;8.35;;;3.38;;
13855;SDS011;6998;53.608;9.958;2023-03-14T09:35:03;9.93;;;3.58;;
13855;SDS011;6998;53.608;9.958;2023-03-14T09:37:32;11.65;;;4.00;;
13855;SDS011;6998;53.608;9.958;2023-03-14T09:39:59;8.27;;;3.85;;
13855;SDS011;6998;53.608;9.958;2023-03-14T09:42:26;8.57;;;3.83;;
13855;SDS011;6998;53.608;9.958;2023-03-14T09:44:54;8.82;;;3.83;;
13855;SDS011;6998;53.608;9.958;2023-03-14T09:47:23;8.00;;;3.55;;
13855;SDS011;6998;53.608;9.958;2023-03-14T09:49:51;6.05;;;2.78;;
13855;SDS011;6998;53.608;9.958;2023-03-14T09:52:19;4.65;;;1.88;;
13855;SDS011;6998;53.608;9.958;2023-03-14T09:54:52;1.92;;;1.05;;
13855;SDS011;6998;53.608;9.958;2023-03-14T09:57:24;2.85;;;1.40;;
13855;SDS011;6998;53.608;9.958;2023-03-14T09:59:53;3.50;;;1.20;;
13855;SDS011;6998;53.608;9.958;2023-03-14T10:02:24;3.25;;;1.30;;
13855;SDS011;6998;53.608;9.958;2023-03-14T10:04:57;2.33;;;1.10;;
13855;SDS011;6998;53.608;9.958;2023-03-14T10:07:27;3.37;;;1.30;;
13855;SDS011;6998;53.608;9.958;2023-03-14T10:10:09;4.05;;;1.50;;
13855;SDS011;6998;53.608;9.958;2023-03-14T10:12:44;4.00;;;1.40;;
13855;SDS011;6998;53.608;9.958;2023-03-14T10:15:13;4.07;;;1.20;;
13855;SDS011;6998;53.608;9.958;2023-03-14T10:17:44;5.17;;;1.47;;
13855;SDS011;6998;53.608;9.958;2023-03-14T10:20:31;2.33;;;0.90;;
13855;SDS011;6998;53.608;9.958;2023-03-14T10:23:02;1.47;;;0.87;;
13855;SDS011;6998;53.608;9.958;2023-03-14T10:25:34;0.93;;;0.80;;
13855;SDS011;6998;53.608;9.958;2023-03-14T10:28:03;1.60;;;0.80;;
13855;SDS011;6998;53.608;9.958;2023-03-14T10:30:39;2.20;;;0.90;;
13855;SDS011;6998;53.608;9.958;2023-03-14T10:33:11;1.27;;;0.70;;
13855;SDS011;6998;53.608;9.958;2023-03-14T10:55:55;0.73;;;0.60;;
13855;SDS011;6998;53.608;9.958;2023-03-14T11:42:02;2.77;;;0.90;;
13855;SDS011;6998;53.608;9.958;2023-03-14T11:45:34;4.90;;;0.90;;
13855;SDS011;6998;53.608;9.958;2023-03-14T11:48:48;2.70;;;1.07;;
13855;SDS011;6998;53.608;9.958;2023-03-14T11:52:13;6.33;;;1.03;;
13855;SDS011;6998;53.608;9.958;2023-03-14T12:01:57;7.37;;;1.30;;
13855;SDS011;6998;53.608;9.958;2023-03-14T12:04:50;3.60;;;1.30;;
13855;SDS011;6998;53.608;9.958;2023-03-14T12:11:23;7.23;;;1.70;;
13855;SDS011;6998;53.608;9.958;2023-03-14T12:41:26;8.27;;;2.00;;
13855;SDS011;6998;53.608;9.958;2023-03-14T12:48:19;9.63;;;2.07;;
13855;SDS011;6998;53.608;9.958;2023-03-14T12:51:53;8.33;;;2.00;;
13855;SDS011;6998;53.608;9.958;2023-03-14T13:04:33;10.63;;;2.27;;
13855;SDS011;6998;53.608;9.958;2023-03-14T13:08:08;5.73;;;1.90;;
13855;SDS011;6998;53.608;9.958;2023-03-14T13:11:20;15.23;;;2.60;;
13855;SDS011;6998;53.608;9.958;2023-03-14T13:14:29;12.73;;;2.27;;
13855;SDS011;6998;53.608;9.958;2023-03-14T13:17:04;11.73;;;3.00;;
